sensor_id;sensor_type;location;lat;lon;timestamp;P1;durP1;ratioP1;P2;durP2;ratioP2
59734;SDS011;64362;45.620;4.920;2023-06-10T00:00:00;4.97;;;3.95;;
59734;SDS011;64362;45.620;4.920;2023-06-10T00:02:26;4.93;;;4.05;;
59734;SDS011;64362;45.620;4.920;2023-06-10T00:04:52;5.22;;;3.90;;
59734;SDS011;64362;45.620;4.920;2023-06-10T00:07:18;5.53;;;3.58;;
59734;SDS011;64362;45.620;4.920;2023-06-10T00:09:43;5.32;;;3.80;;
59734;SDS011;64362;45.620;4.920;2023-06-10T00:12:09;5.00;;;3.47;;
59734;SDS011;64362;45.620;4.920;2023-06-10T00:14:38;5.63;;;4.10;;
59734;SDS011;64362;45.620;4.920;2023-06-10T00:17:05;4.05;;;3.30;;
59734;SDS011;64362;45.620;4.920;2023-06-10T00:19:35;4.93;;;3.80;;
59734;SDS011;64362;45.620;4.920;2023-06-10T00:22:01;4.95;;;3.30;;
59734;SDS011;64362;45.620;4.920;2023-06-10T00:24:28;4.22;;;3.22;;
59734;SDS011;64362;45.620;4.920;2023-06-10T00:26:53;4.40;;;2.92;;
59734;SDS011;64362;45.620;4.920;2023-06-10T00:29:19;5.70;;;3.40;;
59734;SDS011;64362;45.620;4.920;2023-06-10T00:31:44;6.07;;;3.75;;
59734;SDS011;64362;45.620;4.920;2023-06-10T00:34:10;6.13;;;3.50;;
59734;SDS011;64362;45.620;4.920;2023-06-10T00:36:36;6.80;;;3.83;;
59734;SDS011;64362;45.620;4.920;2023-06-10T00:39:02;5.93;;;3.53;;
59734;SDS011;64362;45.620;4.920;2023-06-10T00:41:29;4.95;;;3.65;;
59734;SDS011;64362;45.620;4.920;2023-06-10T00:43:54;6.03;;;3.78;;
59734;SDS011;64362;45.620;4.920;2023-06-10T00:46:21;5.30;;;3.38;;
59734;SDS011;64362;45.620;4.920;2023-06-10T00:48:47;4.15;;;3.13;;
59734;SDS011;64362;45.620;4.920;2023-06-10T00:51:12;4.15;;;3.03;;
59734;SDS011;64362;45.620;4.920;2023-06-10T00:53:39;4.05;;;3.13;;
59734;SDS011;64362;45.620;4.920;2023-06-10T00:56:05;4.68;;;3.47;;
59734;SDS011;64362;45.620;4.920;2023-06-10T00:58:31;6.35;;;3.15;;
59734;SDS011;64362;45.620;4.920;2023-06-10T01:00:56;4.10;;;2.95;;
59734;SDS011;64362;45.620;4.920;2023-06-10T01:03:26;4.80;;;2.58;;
59734;SDS011;64362;45.620;4.920;2023-06-10T01:09:02;4.38;;;2.80;;
59734;SDS011;64362;45.620;4.920;2023-06-10T01:11:40;4.63;;;2.67;;
59734;SDS011;64362;45.620;4.920;2023-06-10T01:14:10;3.88;;;2.88;;
59734;SDS011;64362;45.620;4.920;2023-06-10T01:16:35;4.43;;;2.67;;
59734;SDS011;64362;45.620;4.920;2023-06-10T01:19:02;5.85;;;3.17;;
59734;SDS011;64362;45.620;4.920;2023-06-10T01:21:28;5.07;;;2.63;;
59734;SDS011;64362;45.620;4.920;2023-06-10T01:23:53;3.45;;;2.45;;
59734;SDS011;64362;45.620;4.920;2023-06-10T01:26:22;4.03;;;2.70;;
59734;SDS011;64362;45.620;4.920;2023-06-10T01:28:58;4.95;;;3.03;;
59734;SDS011;64362;45.620;4.920;2023-06-10T01:31:44;4.10;;;2.50;;
59734;SDS011;64362;45.620;4.920;2023-06-10T01:34:14;4.70;;;3.30;;
59734;SDS011;64362;45.620;4.920;2023-06-10T01:36:43;3.97;;;2.67;;
59734;SDS011;64362;45.620;4.920;2023-06-10T01:39:12;4.38;;;3.03;;
59734;SDS011;64362;45.620;4.920;2023-06-10T01:41:40;3.75;;;2.75;;
59734;SDS011;64362;45.620;4.920;2023-06-10T01:44:06;5.80;;;3.05;;
59734;SDS011;64362;45.620;4.920;2023-06-10T01:46:31;3.53;;;2.58;;
59734;SDS011;64362;45.620;4.920;2023-06-10T01:48:57;4.13;;;2.78;;
59734;SDS011;64362;45.620;4.920;2023-06-10T01:51:22;6.22;;;2.80;;
59734;SDS011;64362;45.620;4.920;2023-06-10T01:53:48;4.93;;;2.92;;
59734;SDS011;64362;45.620;4.920;2023-06-10T01:56:13;5.47;;;2.92;;
59734;SDS011;64362;45.620;4.920;2023-06-10T01:58:43;3.40;;;2.70;;
59734;SDS011;64362;45.620;4.920;2023-06-10T02:01:09;4.65;;;2.90;;
59734;SDS011;64362;45.620;4.920;2023-06-10T02:03:36;4.32;;;2.70;;
59734;SDS011;64362;45.620;4.920;2023-06-10T02:06:01;4.05;;;2.85;;
59734;SDS011;64362;45.620;4.920;2023-06-10T02:08:27;3.90;;;2.72;;
59734;SDS011;64362;45.620;4.920;2023-06-10T02:10:55;3.45;;;2.58;;
59734;SDS011;64362;45.620;4.920;2023-06-10T02:13:20;4.63;;;2.90;;
59734;SDS011;64362;45.620;4.920;2023-06-10T02:15:50;3.35;;;2.20;;
59734;SDS011;64362;45.620;4.920;2023-06-10T02:18:17;5.65;;;2.70;;
59734;SDS011;64362;45.620;4.920;2023-06-10T02:20:45;4.80;;;2.47;;
59734;SDS011;64362;45.620;4.920;2023-06-10T02:23:11;3.60;;;2.50;;
59734;SDS011;64362;45.620;4.920;2023-06-10T02:25:36;3.25;;;2.65;;
59734;SDS011;64362;45.620;4.920;2023-06-10T02:28:02;6.15;;;2.83;;
59734;SDS011;64362;45.620;4.920;2023-06-10T02:30:29;4.10;;;2.53;;
59734;SDS011;64362;45.620;4.920;2023-06-10T02:32:54;5.68;;;3.05;;
59734;SDS011;64362;45.620;4.920;2023-06-10T02:35:22;3.50;;;2.50;;
59734;SDS011;64362;45.620;4.920;2023-06-10T02:37:49;4.63;;;2.70;;
59734;SDS011;64362;45.620;4.920;2023-06-10T02:40:16;5.22;;;2.58;;
59734;SDS011;64362;45.620;4.920;2023-06-10T02:42:42;5.07;;;2.60;;
59734;SDS011;64362;45.620;4.920;2023-06-10T02:45:08;4.10;;;2.50;;
59734;SDS011;64362;45.620;4.920;2023-06-10T02:47:38;4.57;;;2.65;;
59734;SDS011;64362;45.620;4.920;2023-06-10T02:50:05;5.10;;;2.90;;
59734;SDS011;64362;45.620;4.920;2023-06-10T02:52:36;3.35;;;2.20;;
59734;SDS011;64362;45.620;4.920;2023-06-10T02:55:01;4.43;;;2.58;;
59734;SDS011;64362;45.620;4.920;2023-06-10T02:57:27;4.75;;;2.80;;
59734;SDS011;64362;45.620;4.920;2023-06-10T02:59:52;3.85;;;2.80;;
59734;SDS011;64362;45.620;4.920;2023-06-10T03:02:19;3.58;;;2.33;;
59734;SDS011;64362;45.620;4.920;2023-06-10T03:04:49;4.00;;;2.45;;
59734;SDS011;64362;45.620;4.920;2023-06-10T03:07:17;5.20;;;2.67;;
59734;SDS011;64362;45.620;4.920;2023-06-10T03:09:44;3.65;;;2.33;;
59734;SDS011;64362;45.620;4.920;2023-06-10T03:12:11;4.68;;;2.75;;
59734;SDS011;64362;45.620;4.920;2023-06-10T03:14:42;3.20;;;2.30;;
59734;SDS011;64362;45.620;4.920;2023-06-10T03:17:08;3.70;;;2.28;;
59734;SDS011;64362;45.620;4.920;2023-06-10T03:19:35;2.80;;;2.33;;
59734;SDS011;64362;45.620;4.920;2023-06-10T03:22:15;4.15;;;2.70;;
59734;SDS011;64362;45.620;4.920;2023-06-10T03:24:56;3.15;;;2.35;;
59734;SDS011;64362;45.620;4.920;2023-06-10T03:27:23;3.70;;;2.45;;
59734;SDS011;64362;45.620;4.920;2023-06-10T03:29:52;4.10;;;2.50;;
59734;SDS011;64362;45.620;4.920;2023-06-10T03:32:18;3.92;;;2.60;;
59734;SDS011;64362;45.620;4.920;2023-06-10T03:34:44;4.07;;;2.85;;
59734;SDS011;64362;45.620;4.920;2023-06-10T03:37:13;5.00;;;2.63;;
59734;SDS011;64362;45.620;4.920;2023-06-10T03:39:39;4.55;;;2.60;;
59734;SDS011;64362;45.620;4.920;2023-06-10T03:42:05;5.25;;;2.65;;
59734;SDS011;64362;45.620;4.920;2023-06-10T03:44:32;4.65;;;2.53;;
59734;SDS011;64362;45.620;4.920;2023-06-10T03:46:57;4.60;;;2.67;;
59734;SDS011;64362;45.620;4.920;2023-06-10T03:49:24;4.55;;;2.55;;
59734;SDS011;64362;45.620;4.920;2023-06-10T03:51:52;3.08;;;2.63;;
59734;SDS011;64362;45.620;4.920;2023-06-10T03:54:19;4.40;;;2.80;;
59734;SDS011;64362;45.620;4.920;2023-06-10T03:56:45;3.78;;;2.50;;
59734;SDS011;64362;45.620;4.920;2023-06-10T03:59:13;2.97;;;2.20;;
59734;SDS011;64362;45.620;4.920;2023-06-10T04:01:39;2.85;;;2.28;;
59734;SDS011;64362;45.620;4.920;2023-06-10T04:04:06;5.53;;;2.42;;
59734;SDS011;64362;45.620;4.920;2023-06-10T04:06:33;4.32;;;2.40;;
59734;SDS011;64362;45.620;4.920;2023-06-10T04:08:58;5.15;;;2.88;;
59734;SDS011;64362;45.620;4.920;2023-06-10T04:11:26;4.10;;;2.33;;
59734;SDS011;64362;45.620;4.920;2023-06-10T04:13:52;4.07;;;2.95;;
59734;SDS011;64362;45.620;4.920;2023-06-10T04:16:17;5.90;;;2.70;;
59734;SDS011;64362;45.620;4.920;2023-06-10T04:18:43;4.22;;;2.97;;
59734;SDS011;64362;45.620;4.920;2023-06-10T04:21:11;4.15;;;2.40;;
59734;SDS011;64362;45.620;4.920;2023-06-10T04:23:37;4.38;;;2.60;;
59734;SDS011;64362;45.620;4.920;2023-06-10T04:26:04;6.00;;;2.65;;
59734;SDS011;64362;45.620;4.920;2023-06-10T04:28:31;4.45;;;2.40;;
59734;SDS011;64362;45.620;4.920;2023-06-10T04:30:57;4.20;;;2.42;;
59734;SDS011;64362;45.620;4.920;2023-06-10T04:33:23;3.97;;;2.80;;
59734;SDS011;64362;45.620;4.920;2023-06-10T04:35:48;4.15;;;2.60;;
59734;SDS011;64362;45.620;4.920;2023-06-10T04:38:16;4.05;;;2.42;;
59734;SDS011;64362;45.620;4.920;2023-06-10T04:40:42;4.70;;;2.58;;
59734;SDS011;64362;45.620;4.920;2023-06-10T04:43:09;3.70;;;2.50;;
59734;SDS011;64362;45.620;4.920;2023-06-10T04:45:35;4.03;;;2.63;;
59734;SDS011;64362;45.620;4.920;2023-06-10T04:48:01;3.80;;;2.60;;
59734;SDS011;64362;45.620;4.920;2023-06-10T04:50:26;5.03;;;2.80;;
59734;SDS011;64362;45.620;4.920;2023-06-10T04:52:52;4.55;;;2.55;;
59734;SDS011;64362;45.620;4.920;2023-06-10T04:55:17;3.85;;;2.70;;
59734;SDS011;64362;45.620;4.920;2023-06-10T04:57:43;7.05;;;2.95;;
59734;SDS011;64362;45.620;4.920;2023-06-10T05:00:09;4.00;;;2.45;;
59734;SDS011;64362;45.620;4.920;2023-06-10T05:02:36;3.90;;;2.50;;
59734;SDS011;64362;45.620;4.920;2023-06-10T05:05:02;3.50;;;2.50;;
59734;SDS011;64362;45.620;4.920;2023-06-10T05:07:27;3.63;;;2.45;;
59734;SDS011;64362;45.620;4.920;2023-06-10T05:09:53;3.40;;;2.72;;
59734;SDS011;64362;45.620;4.920;2023-06-10T05:12:18;4.18;;;2.83;;
59734;SDS011;64362;45.620;4.920;2023-06-10T05:14:43;3.63;;;2.47;;
59734;SDS011;64362;45.620;4.920;2023-06-10T05:17:10;3.53;;;2.78;;
59734;SDS011;64362;45.620;4.920;2023-06-10T05:19:35;3.80;;;2.55;;
59734;SDS011;64362;45.620;4.920;2023-06-10T05:22:02;6.72;;;3.50;;
59734;SDS011;64362;45.620;4.920;2023-06-10T05:24:28;4.13;;;2.88;;
59734;SDS011;64362;45.620;4.920;2023-06-10T05:26:53;4.22;;;3.10;;
59734;SDS011;64362;45.620;4.920;2023-06-10T05:29:19;5.70;;;3.17;;
59734;SDS011;64362;45.620;4.920;2023-06-10T05:31:44;4.60;;;2.75;;
59734;SDS011;64362;45.620;4.920;2023-06-10T05:34:10;4.97;;;2.83;;
59734;SDS011;64362;45.620;4.920;2023-06-10T05:36:35;5.95;;;3.53;;
59734;SDS011;64362;45.620;4.920;2023-06-10T05:39:01;6.57;;;3.10;;
59734;SDS011;64362;45.620;4.920;2023-06-10T05:41:26;7.03;;;3.10;;
59734;SDS011;64362;45.620;4.920;2023-06-10T05:43:52;6.85;;;3.47;;
59734;SDS011;64362;45.620;4.920;2023-06-10T05:46:17;6.63;;;3.42;;
59734;SDS011;64362;45.620;4.920;2023-06-10T05:48:43;5.57;;;3.03;;
59734;SDS011;64362;45.620;4.920;2023-06-10T05:51:08;6.47;;;3.45;;
59734;SDS011;64362;45.620;4.920;2023-06-10T05:53:35;8.95;;;3.00;;
59734;SDS011;64362;45.620;4.920;2023-06-10T05:56:01;6.65;;;3.40;;
59734;SDS011;64362;45.620;4.920;2023-06-10T05:58:26;8.40;;;4.03;;
59734;SDS011;64362;45.620;4.920;2023-06-10T06:00:52;10.65;;;4.13;;
59734;SDS011;64362;45.620;4.920;2023-06-10T06:03:17;5.13;;;4.05;;
59734;SDS011;64362;45.620;4.920;2023-06-10T06:05:43;8.27;;;4.50;;
59734;SDS011;64362;45.620;4.920;2023-06-10T06:08:09;8.02;;;4.10;;
59734;SDS011;64362;45.620;4.920;2023-06-10T06:10:34;7.82;;;3.97;;
59734;SDS011;64362;45.620;4.920;2023-06-10T06:13:00;7.45;;;3.95;;
59734;SDS011;64362;45.620;4.920;2023-06-10T06:15:26;9.10;;;4.10;;
59734;SDS011;64362;45.620;4.920;2023-06-10T06:17:51;10.48;;;4.32;;
59734;SDS011;64362;45.620;4.920;2023-06-10T06:20:21;6.75;;;4.03;;
59734;SDS011;64362;45.620;4.920;2023-06-10T06:22:47;13.77;;;4.38;;
59734;SDS011;64362;45.620;4.920;2023-06-10T06:25:12;9.38;;;4.25;;
59734;SDS011;64362;45.620;4.920;2023-06-10T06:27:38;7.97;;;4.40;;
59734;SDS011;64362;45.620;4.920;2023-06-10T06:30:03;7.60;;;3.95;;
59734;SDS011;64362;45.620;4.920;2023-06-10T06:32:30;6.55;;;3.67;;
59734;SDS011;64362;45.620;4.920;2023-06-10T06:34:55;10.40;;;3.58;;
59734;SDS011;64362;45.620;4.920;2023-06-10T06:37:21;8.07;;;3.70;;
59734;SDS011;64362;45.620;4.920;2023-06-10T06:39:50;6.80;;;3.58;;
59734;SDS011;64362;45.620;4.920;2023-06-10T06:42:16;5.45;;;3.70;;
59734;SDS011;64362;45.620;4.920;2023-06-10T06:44:53;8.32;;;3.90;;
59734;SDS011;64362;45.620;4.920;2023-06-10T06:47:18;8.50;;;3.95;;
59734;SDS011;64362;45.620;4.920;2023-06-10T06:49:47;7.28;;;4.00;;
59734;SDS011;64362;45.620;4.920;2023-06-10T06:52:14;8.60;;;3.83;;
59734;SDS011;64362;45.620;4.920;2023-06-10T06:54:40;5.43;;;3.55;;
59734;SDS011;64362;45.620;4.920;2023-06-10T06:57:06;7.93;;;3.60;;
59734;SDS011;64362;45.620;4.920;2023-06-10T06:59:32;5.45;;;3.80;;
59734;SDS011;64362;45.620;4.920;2023-06-10T07:01:58;5.30;;;3.40;;
59734;SDS011;64362;45.620;4.920;2023-06-10T07:04:24;5.63;;;3.67;;
59734;SDS011;64362;45.620;4.920;2023-06-10T07:06:49;6.57;;;4.13;;
59734;SDS011;64362;45.620;4.920;2023-06-10T07:09:15;6.05;;;3.50;;
59734;SDS011;64362;45.620;4.920;2023-06-10T07:11:41;7.80;;;3.80;;
59734;SDS011;64362;45.620;4.920;2023-06-10T07:14:06;4.57;;;3.70;;
59734;SDS011;64362;45.620;4.920;2023-06-10T07:16:32;5.13;;;3.20;;
59734;SDS011;64362;45.620;4.920;2023-06-10T07:18:58;5.93;;;3.65;;
59734;SDS011;64362;45.620;4.920;2023-06-10T07:21:23;4.45;;;3.22;;
59734;SDS011;64362;45.620;4.920;2023-06-10T07:23:49;5.18;;;3.42;;
59734;SDS011;64362;45.620;4.920;2023-06-10T07:26:17;5.28;;;3.53;;
59734;SDS011;64362;45.620;4.920;2023-06-10T07:28:43;5.00;;;3.58;;
59734;SDS011;64362;45.620;4.920;2023-06-10T07:31:08;5.05;;;3.55;;
59734;SDS011;64362;45.620;4.920;2023-06-10T07:33:34;5.32;;;3.50;;
59734;SDS011;64362;45.620;4.920;2023-06-10T07:36:00;5.57;;;3.65;;
59734;SDS011;64362;45.620;4.920;2023-06-10T07:38:26;5.82;;;3.60;;
59734;SDS011;64362;45.620;4.920;2023-06-10T07:40:52;6.32;;;3.42;;
59734;SDS011;64362;45.620;4.920;2023-06-10T07:43:18;5.28;;;3.65;;
59734;SDS011;64362;45.620;4.920;2023-06-10T07:45:43;5.30;;;3.40;;
59734;SDS011;64362;45.620;4.920;2023-06-10T07:48:09;5.55;;;3.65;;
59734;SDS011;64362;45.620;4.920;2023-06-10T07:50:34;6.47;;;3.40;;
59734;SDS011;64362;45.620;4.920;2023-06-10T07:53:00;6.28;;;3.50;;
59734;SDS011;64362;45.620;4.920;2023-06-10T07:55:26;5.95;;;3.60;;
59734;SDS011;64362;45.620;4.920;2023-06-10T07:57:52;5.63;;;3.83;;
59734;SDS011;64362;45.620;4.920;2023-06-10T08:00:18;6.32;;;3.88;;
59734;SDS011;64362;45.620;4.920;2023-06-10T08:02:44;7.97;;;4.00;;
59734;SDS011;64362;45.620;4.920;2023-06-10T08:05:09;8.73;;;4.10;;
59734;SDS011;64362;45.620;4.920;2023-06-10T08:07:35;7.00;;;4.13;;
59734;SDS011;64362;45.620;4.920;2023-06-10T08:10:00;6.22;;;3.50;;
59734;SDS011;64362;45.620;4.920;2023-06-10T08:12:26;7.25;;;3.92;;
59734;SDS011;64362;45.620;4.920;2023-06-10T08:14:51;6.97;;;3.88;;
59734;SDS011;64362;45.620;4.920;2023-06-10T08:17:17;6.57;;;4.20;;
59734;SDS011;64362;45.620;4.920;2023-06-10T08:19:42;7.93;;;4.05;;
59734;SDS011;64362;45.620;4.920;2023-06-10T08:22:08;6.20;;;4.25;;
59734;SDS011;64362;45.620;4.920;2023-06-10T08:24:33;7.78;;;4.70;;
59734;SDS011;64362;45.620;4.920;2023-06-10T08:26:59;8.77;;;4.43;;
59734;SDS011;64362;45.620;4.920;2023-06-10T08:29:25;6.25;;;4.68;;
59734;SDS011;64362;45.620;4.920;2023-06-10T08:31:50;7.93;;;4.65;;
59734;SDS011;64362;45.620;4.920;2023-06-10T08:34:16;9.63;;;4.45;;
59734;SDS011;64362;45.620;4.920;2023-06-10T08:36:42;6.05;;;4.20;;
59734;SDS011;64362;45.620;4.920;2023-06-10T08:39:08;5.45;;;4.30;;
59734;SDS011;64362;45.620;4.920;2023-06-10T08:41:35;6.43;;;4.60;;
59734;SDS011;64362;45.620;4.920;2023-06-10T08:44:35;5.47;;;4.18;;
59734;SDS011;64362;45.620;4.920;2023-06-10T08:46:53;6.97;;;4.75;;
59734;SDS011;64362;45.620;4.920;2023-06-10T08:49:21;6.60;;;3.95;;
59734;SDS011;64362;45.620;4.920;2023-06-10T08:51:49;6.43;;;4.32;;
59734;SDS011;64362;45.620;4.920;2023-06-10T08:54:17;5.35;;;3.92;;
59734;SDS011;64362;45.620;4.920;2023-06-10T08:56:46;5.93;;;4.30;;
59734;SDS011;64362;45.620;4.920;2023-06-10T08:59:14;6.03;;;4.07;;
59734;SDS011;64362;45.620;4.920;2023-06-10T09:01:41;5.15;;;4.00;;
59734;SDS011;64362;45.620;4.920;2023-06-10T09:04:08;4.82;;;4.10;;
59734;SDS011;64362;45.620;4.920;2023-06-10T09:06:33;5.95;;;4.30;;
59734;SDS011;64362;45.620;4.920;2023-06-10T09:09:01;5.25;;;3.90;;
59734;SDS011;64362;45.620;4.920;2023-06-10T09:11:27;5.18;;;4.13;;
59734;SDS011;64362;45.620;4.920;2023-06-10T09:13:52;6.55;;;4.20;;
59734;SDS011;64362;45.620;4.920;2023-06-10T09:16:18;6.50;;;3.83;;
59734;SDS011;64362;45.620;4.920;2023-06-10T09:18:43;5.60;;;4.15;;
59734;SDS011;64362;45.620;4.920;2023-06-10T09:21:09;4.82;;;4.05;;
59734;SDS011;64362;45.620;4.920;2023-06-10T09:23:35;4.95;;;3.50;;
59734;SDS011;64362;45.620;4.920;2023-06-10T09:26:02;5.35;;;4.07;;
59734;SDS011;64362;45.620;4.920;2023-06-10T09:28:30;4.93;;;3.50;;
59734;SDS011;64362;45.620;4.920;2023-06-10T09:31:05;5.30;;;4.15;;
59734;SDS011;64362;45.620;4.920;2023-06-10T09:33:32;6.13;;;3.53;;
59734;SDS011;64362;45.620;4.920;2023-06-10T09:35:59;4.65;;;3.40;;
59734;SDS011;64362;45.620;4.920;2023-06-10T09:38:29;4.45;;;3.65;;
59734;SDS011;64362;45.620;4.920;2023-06-10T09:40:54;5.90;;;3.53;;
59734;SDS011;64362;45.620;4.920;2023-06-10T09:43:20;5.53;;;3.42;;
59734;SDS011;64362;45.620;4.920;2023-06-10T09:45:50;5.55;;;3.28;;
59734;SDS011;64362;45.620;4.920;2023-06-10T09:48:18;3.63;;;3.17;;
59734;SDS011;64362;45.620;4.920;2023-06-10T09:50:44;4.72;;;3.40;;
59734;SDS011;64362;45.620;4.920;2023-06-10T09:53:10;4.45;;;3.05;;
59734;SDS011;64362;45.620;4.920;2023-06-10T09:55:39;5.22;;;3.30;;
59734;SDS011;64362;45.620;4.920;2023-06-10T09:58:06;6.90;;;3.28;;
59734;SDS011;64362;45.620;4.920;2023-06-10T10:00:32;5.75;;;3.35;;
59734;SDS011;64362;45.620;4.920;2023-06-10T10:02:58;4.75;;;2.88;;
59734;SDS011;64362;45.620;4.920;2023-06-10T10:05:24;8.93;;;3.67;;
59734;SDS011;64362;45.620;4.920;2023-06-10T10:07:49;6.32;;;3.10;;
59734;SDS011;64362;45.620;4.920;2023-06-10T10:10:17;5.10;;;3.10;;
59734;SDS011;64362;45.620;4.920;2023-06-10T10:12:43;5.03;;;3.03;;
59734;SDS011;64362;45.620;4.920;2023-06-10T10:15:11;5.85;;;2.47;;
59734;SDS011;64362;45.620;4.920;2023-06-10T10:17:38;4.88;;;2.75;;
59734;SDS011;64362;45.620;4.920;2023-06-10T10:20:05;4.28;;;2.50;;
59734;SDS011;64362;45.620;4.920;2023-06-10T10:22:37;5.05;;;2.60;;
59734;SDS011;64362;45.620;4.920;2023-06-10T10:25:05;4.80;;;2.58;;
59734;SDS011;64362;45.620;4.920;2023-06-10T10:27:36;8.75;;;2.80;;
59734;SDS011;64362;45.620;4.920;2023-06-10T10:30:04;5.95;;;3.20;;
59734;SDS011;64362;45.620;4.920;2023-06-10T10:35:21;6.65;;;2.67;;
59734;SDS011;64362;45.620;4.920;2023-06-10T10:37:48;3.70;;;2.63;;
59734;SDS011;64362;45.620;4.920;2023-06-10T10:40:14;6.78;;;3.05;;
59734;SDS011;64362;45.620;4.920;2023-06-10T10:42:40;4.53;;;2.97;;
59734;SDS011;64362;45.620;4.920;2023-06-10T10:45:06;3.58;;;2.78;;
59734;SDS011;64362;45.620;4.920;2023-06-10T10:47:32;3.65;;;2.63;;
59734;SDS011;64362;45.620;4.920;2023-06-10T10:49:58;4.03;;;2.83;;
59734;SDS011;64362;45.620;4.920;2023-06-10T10:52:25;5.15;;;2.80;;
59734;SDS011;64362;45.620;4.920;2023-06-10T10:54:52;4.68;;;2.72;;
59734;SDS011;64362;45.620;4.920;2023-06-10T10:57:19;3.88;;;2.72;;
59734;SDS011;64362;45.620;4.920;2023-06-10T10:59:46;3.70;;;2.80;;
59734;SDS011;64362;45.620;4.920;2023-06-10T11:02:50;4.22;;;3.17;;
59734;SDS011;64362;45.620;4.920;2023-06-10T11:05:16;5.78;;;3.20;;
59734;SDS011;64362;45.620;4.920;2023-06-10T11:07:51;4.57;;;3.05;;
59734;SDS011;64362;45.620;4.920;2023-06-10T11:10:32;4.32;;;3.00;;
59734;SDS011;64362;45.620;4.920;2023-06-10T11:12:59;3.97;;;2.85;;
59734;SDS011;64362;45.620;4.920;2023-06-10T11:15:25;4.80;;;3.20;;
59734;SDS011;64362;45.620;4.920;2023-06-10T11:21:06;4.28;;;2.97;;
59734;SDS011;64362;45.620;4.920;2023-06-10T11:31:20;5.28;;;3.03;;
59734;SDS011;64362;45.620;4.920;2023-06-10T11:33:52;4.47;;;3.00;;
59734;SDS011;64362;45.620;4.920;2023-06-10T11:36:18;4.55;;;3.08;;
59734;SDS011;64362;45.620;4.920;2023-06-10T11:38:43;4.78;;;3.42;;
59734;SDS011;64362;45.620;4.920;2023-06-10T11:41:10;4.53;;;3.25;;
59734;SDS011;64362;45.620;4.920;2023-06-10T11:43:36;5.40;;;3.47;;
59734;SDS011;64362;45.620;4.920;2023-06-10T11:46:02;4.28;;;3.03;;
59734;SDS011;64362;45.620;4.920;2023-06-10T11:48:28;4.95;;;3.72;;
59734;SDS011;64362;45.620;4.920;2023-06-10T11:50:55;5.60;;;3.42;;
59734;SDS011;64362;45.620;4.920;2023-06-10T11:53:21;4.57;;;3.58;;
59734;SDS011;64362;45.620;4.920;2023-06-10T11:55:47;5.05;;;3.70;;
59734;SDS011;64362;45.620;4.920;2023-06-10T12:00:55;4.47;;;3.45;;
59734;SDS011;64362;45.620;4.920;2023-06-10T12:03:23;6.85;;;3.92;;
59734;SDS011;64362;45.620;4.920;2023-06-10T12:06:00;5.15;;;3.60;;
59734;SDS011;64362;45.620;4.920;2023-06-10T12:08:28;4.43;;;3.50;;
59734;SDS011;64362;45.620;4.920;2023-06-10T12:10:54;4.28;;;3.72;;
59734;SDS011;64362;45.620;4.920;2023-06-10T12:13:20;4.13;;;3.25;;
59734;SDS011;64362;45.620;4.920;2023-06-10T12:15:46;6.50;;;3.83;;
59734;SDS011;64362;45.620;4.920;2023-06-10T12:18:19;5.43;;;3.80;;
59734;SDS011;64362;45.620;4.920;2023-06-10T12:20:48;4.55;;;3.70;;
59734;SDS011;64362;45.620;4.920;2023-06-10T12:23:16;6.00;;;3.22;;
59734;SDS011;64362;45.620;4.920;2023-06-10T12:25:49;5.13;;;3.65;;
59734;SDS011;64362;45.620;4.920;2023-06-10T12:28:22;5.28;;;3.30;;
59734;SDS011;64362;45.620;4.920;2023-06-10T12:30:51;3.88;;;2.95;;
59734;SDS011;64362;45.620;4.920;2023-06-10T12:33:17;4.78;;;2.72;;
59734;SDS011;64362;45.620;4.920;2023-06-10T12:35:47;4.65;;;2.72;;
59734;SDS011;64362;45.620;4.920;2023-06-10T12:38:13;5.15;;;3.15;;
59734;SDS011;64362;45.620;4.920;2023-06-10T12:40:39;4.20;;;2.47;;
59734;SDS011;64362;45.620;4.920;2023-06-10T12:43:05;3.80;;;2.60;;
59734;SDS011;64362;45.620;4.920;2023-06-10T12:45:35;3.55;;;2.30;;
59734;SDS011;64362;45.620;4.920;2023-06-10T12:48:08;4.63;;;2.72;;
59734;SDS011;64362;45.620;4.920;2023-06-10T12:50:35;4.55;;;2.80;;
59734;SDS011;64362;45.620;4.920;2023-06-10T12:53:04;5.68;;;2.75;;
59734;SDS011;64362;45.620;4.920;2023-06-10T12:55:30;3.60;;;2.50;;
59734;SDS011;64362;45.620;4.920;2023-06-10T12:57:57;4.43;;;2.75;;
59734;SDS011;64362;45.620;4.920;2023-06-10T13:00:23;3.33;;;2.55;;
59734;SDS011;64362;45.620;4.920;2023-06-10T13:02:51;4.40;;;2.63;;
59734;SDS011;64362;45.620;4.920;2023-06-10T13:05:17;3.40;;;2.80;;
59734;SDS011;64362;45.620;4.920;2023-06-10T13:07:44;4.03;;;2.80;;
59734;SDS011;64362;45.620;4.920;2023-06-10T13:10:09;4.07;;;2.58;;
59734;SDS011;64362;45.620;4.920;2023-06-10T13:12:35;4.07;;;2.67;;
59734;SDS011;64362;45.620;4.920;2023-06-10T13:15:02;4.50;;;3.13;;
59734;SDS011;64362;45.620;4.920;2023-06-10T13:17:28;3.58;;;2.30;;
59734;SDS011;64362;45.620;4.920;2023-06-10T13:19:53;4.43;;;2.40;;
59734;SDS011;64362;45.620;4.920;2023-06-10T13:22:19;3.83;;;2.40;;
59734;SDS011;64362;45.620;4.920;2023-06-10T13:24:45;3.20;;;2.20;;
59734;SDS011;64362;45.620;4.920;2023-06-10T13:27:11;3.20;;;2.00;;
59734;SDS011;64362;45.620;4.920;2023-06-10T13:29:39;3.55;;;2.10;;
59734;SDS011;64362;45.620;4.920;2023-06-10T13:32:05;3.25;;;2.08;;
59734;SDS011;64362;45.620;4.920;2023-06-10T13:34:31;2.72;;;1.90;;
59734;SDS011;64362;45.620;4.920;2023-06-10T13:36:57;3.22;;;2.33;;
59734;SDS011;64362;45.620;4.920;2023-06-10T13:39:22;4.10;;;2.25;;
59734;SDS011;64362;45.620;4.920;2023-06-10T13:41:48;2.92;;;2.10;;
59734;SDS011;64362;45.620;4.920;2023-06-10T13:44:14;4.22;;;1.77;;
59734;SDS011;64362;45.620;4.920;2023-06-10T13:46:39;4.68;;;1.85;;
59734;SDS011;64362;45.620;4.920;2023-06-10T13:49:05;3.05;;;1.52;;
59734;SDS011;64362;45.620;4.920;2023-06-10T13:51:30;2.80;;;1.90;;
59734;SDS011;64362;45.620;4.920;2023-06-10T13:53:56;3.30;;;1.75;;
59734;SDS011;64362;45.620;4.920;2023-06-10T13:56:21;2.40;;;1.80;;
59734;SDS011;64362;45.620;4.920;2023-06-10T13:58:46;2.75;;;1.92;;
59734;SDS011;64362;45.620;4.920;2023-06-10T14:01:12;4.20;;;2.20;;
59734;SDS011;64362;45.620;4.920;2023-06-10T14:03:37;3.97;;;2.15;;
59734;SDS011;64362;45.620;4.920;2023-06-10T14:06:03;4.45;;;2.10;;
59734;SDS011;64362;45.620;4.920;2023-06-10T14:08:29;3.30;;;2.20;;
59734;SDS011;64362;45.620;4.920;2023-06-10T14:10:54;4.10;;;2.15;;
59734;SDS011;64362;45.620;4.920;2023-06-10T14:13:20;3.60;;;2.33;;
59734;SDS011;64362;45.620;4.920;2023-06-10T14:15:45;3.22;;;2.13;;
59734;SDS011;64362;45.620;4.920;2023-06-10T14:18:11;3.45;;;2.60;;
59734;SDS011;64362;45.620;4.920;2023-06-10T14:20:37;3.65;;;2.50;;
59734;SDS011;64362;45.620;4.920;2023-06-10T14:23:02;4.30;;;2.70;;
59734;SDS011;64362;45.620;4.920;2023-06-10T14:25:28;3.95;;;2.70;;
59734;SDS011;64362;45.620;4.920;2023-06-10T14:27:53;3.40;;;2.30;;
59734;SDS011;64362;45.620;4.920;2023-06-10T14:30:19;3.25;;;2.40;;
59734;SDS011;64362;45.620;4.920;2023-06-10T14:32:44;4.10;;;2.38;;
59734;SDS011;64362;45.620;4.920;2023-06-10T14:35:10;3.10;;;2.22;;
59734;SDS011;64362;45.620;4.920;2023-06-10T14:37:36;3.20;;;2.35;;
59734;SDS011;64362;45.620;4.920;2023-06-10T14:40:02;5.18;;;2.80;;
59734;SDS011;64362;45.620;4.920;2023-06-10T14:42:29;3.15;;;2.53;;
59734;SDS011;64362;45.620;4.920;2023-06-10T14:44:54;2.83;;;2.03;;
59734;SDS011;64362;45.620;4.920;2023-06-10T14:47:19;3.30;;;2.08;;
59734;SDS011;64362;45.620;4.920;2023-06-10T14:49:45;3.10;;;2.35;;
59734;SDS011;64362;45.620;4.920;2023-06-10T14:52:11;3.10;;;2.35;;
59734;SDS011;64362;45.620;4.920;2023-06-10T14:54:36;3.60;;;2.20;;
59734;SDS011;64362;45.620;4.920;2023-06-10T14:57:02;4.07;;;2.13;;
59734;SDS011;64362;45.620;4.920;2023-06-10T14:59:28;3.10;;;2.10;;
59734;SDS011;64362;45.620;4.920;2023-06-10T15:01:53;2.83;;;2.17;;
59734;SDS011;64362;45.620;4.920;2023-06-10T15:04:18;3.80;;;2.45;;